Hotevilla, Arizona
Current Conditions -  °F | °C
As of 9:56 AM on Friday 28 Nov 2014 (Local Time) from KINW Reporting Station
Clear Clear  
Wind Chill:   Ceiling: Unl
Heat Index:   Visibility: 10mi
Dew Point: -10°   Wind: 8mph
Humidity: 30%   Direction: 90°E
Pressure: 30.25"   Gusts: NA
Location:  35.93°N, 110.67°W
Report Text: KINW 281656Z AUTO 09007KT 10SM CLR 07/M10 A3025 RMK AO2 SLP241 T00671100
Loading
Personal Weather Stations






























Interactive Weather Map New forecast layout! Learn more

10-Day Weather Forecast

Advertisements
Track Severe Weather on mobile